sensor_id;sensor_type;location;lat;lon;timestamp;P1;durP1;ratioP1;P2;durP2;ratioP2
65737;SDS011;52478;51.844;6.582;2023-04-24T00:00:39;3.55;;;1.20;;
65737;SDS011;52478;51.844;6.582;2023-04-24T00:05:34;3.92;;;1.30;;
65737;SDS011;52478;51.844;6.582;2023-04-24T00:08:00;4.05;;;1.20;;
65737;SDS011;52478;51.844;6.582;2023-04-24T00:10:27;4.80;;;1.33;;
65737;SDS011;52478;51.844;6.582;2023-04-24T00:12:53;3.28;;;1.13;;
65737;SDS011;52478;51.844;6.582;2023-04-24T00:15:20;4.03;;;1.25;;
65737;SDS011;52478;51.844;6.582;2023-04-24T00:17:46;5.43;;;1.40;;
65737;SDS011;52478;51.844;6.582;2023-04-24T00:20:14;3.20;;;1.17;;
65737;SDS011;52478;51.844;6.582;2023-04-24T00:22:41;3.40;;;1.20;;
65737;SDS011;52478;51.844;6.582;2023-04-24T00:25:07;4.63;;;1.42;;
65737;SDS011;52478;51.844;6.582;2023-04-24T00:30:02;3.92;;;1.30;;
65737;SDS011;52478;51.844;6.582;2023-04-24T00:32:29;4.32;;;1.20;;
65737;SDS011;52478;51.844;6.582;2023-04-24T00:34:56;3.67;;;1.20;;
65737;SDS011;52478;51.844;6.582;2023-04-24T00:37:24;3.97;;;1.10;;
65737;SDS011;52478;51.844;6.582;2023-04-24T00:39:50;3.95;;;1.10;;
65737;SDS011;52478;51.844;6.582;2023-04-24T00:42:17;3.45;;;1.10;;
65737;SDS011;52478;51.844;6.582;2023-04-24T00:44:44;4.70;;;1.40;;
65737;SDS011;52478;51.844;6.582;2023-04-24T00:47:10;4.78;;;1.25;;
65737;SDS011;52478;51.844;6.582;2023-04-24T00:49:38;3.33;;;1.20;;
65737;SDS011;52478;51.844;6.582;2023-04-24T00:52:05;4.55;;;1.20;;
65737;SDS011;52478;51.844;6.582;2023-04-24T00:54:35;3.42;;;1.17;;
65737;SDS011;52478;51.844;6.582;2023-04-24T00:57:02;3.45;;;1.10;;
65737;SDS011;52478;51.844;6.582;2023-04-24T00:59:29;3.60;;;1.20;;
65737;SDS011;52478;51.844;6.582;2023-04-24T01:01:57;3.35;;;1.10;;
65737;SDS011;52478;51.844;6.582;2023-04-24T01:04:24;2.85;;;1.02;;
65737;SDS011;52478;51.844;6.582;2023-04-24T01:06:51;3.08;;;1.10;;
65737;SDS011;52478;51.844;6.582;2023-04-24T01:09:18;2.92;;;1.20;;
65737;SDS011;52478;51.844;6.582;2023-04-24T01:11:46;3.58;;;1.02;;
65737;SDS011;52478;51.844;6.582;2023-04-24T01:14:13;3.40;;;1.10;;
65737;SDS011;52478;51.844;6.582;2023-04-24T01:16:39;2.92;;;1.17;;
65737;SDS011;52478;51.844;6.582;2023-04-24T01:19:06;3.80;;;1.23;;
65737;SDS011;52478;51.844;6.582;2023-04-24T01:24:03;2.97;;;1.10;;
65737;SDS011;52478;51.844;6.582;2023-04-24T01:26:30;3.65;;;1.08;;
65737;SDS011;52478;51.844;6.582;2023-04-24T01:28:57;3.55;;;1.10;;
65737;SDS011;52478;51.844;6.582;2023-04-24T01:31:24;4.20;;;1.20;;
65737;SDS011;52478;51.844;6.582;2023-04-24T01:33:50;3.40;;;1.13;;
65737;SDS011;52478;51.844;6.582;2023-04-24T01:36:17;2.88;;;0.93;;
65737;SDS011;52478;51.844;6.582;2023-04-24T01:38:44;3.20;;;0.98;;
65737;SDS011;52478;51.844;6.582;2023-04-24T01:41:12;4.15;;;1.17;;
65737;SDS011;52478;51.844;6.582;2023-04-24T01:43:39;3.03;;;1.00;;
65737;SDS011;52478;51.844;6.582;2023-04-24T01:46:05;2.72;;;1.00;;
65737;SDS011;52478;51.844;6.582;2023-04-24T01:48:32;3.25;;;1.05;;
65737;SDS011;52478;51.844;6.582;2023-04-24T01:50:59;3.67;;;1.15;;
65737;SDS011;52478;51.844;6.582;2023-04-24T01:53:26;3.28;;;1.10;;
65737;SDS011;52478;51.844;6.582;2023-04-24T01:55:52;3.38;;;1.23;;
65737;SDS011;52478;51.844;6.582;2023-04-24T01:58:20;3.65;;;1.10;;
65737;SDS011;52478;51.844;6.582;2023-04-24T02:00:47;3.17;;;1.08;;
65737;SDS011;52478;51.844;6.582;2023-04-24T02:03:14;3.35;;;1.10;;
65737;SDS011;52478;51.844;6.582;2023-04-24T02:05:40;4.28;;;1.27;;
65737;SDS011;52478;51.844;6.582;2023-04-24T02:08:09;2.35;;;0.95;;
65737;SDS011;52478;51.844;6.582;2023-04-24T02:10:36;3.47;;;1.15;;
65737;SDS011;52478;51.844;6.582;2023-04-24T02:13:02;5.13;;;1.35;;
65737;SDS011;52478;51.844;6.582;2023-04-24T02:15:31;3.20;;;1.05;;
65737;SDS011;52478;51.844;6.582;2023-04-24T02:17:57;3.15;;;1.00;;
65737;SDS011;52478;51.844;6.582;2023-04-24T02:20:23;4.32;;;1.25;;
65737;SDS011;52478;51.844;6.582;2023-04-24T02:22:50;3.45;;;1.10;;
65737;SDS011;52478;51.844;6.582;2023-04-24T02:25:16;4.03;;;1.20;;
65737;SDS011;52478;51.844;6.582;2023-04-24T02:27:43;4.05;;;1.27;;
65737;SDS011;52478;51.844;6.582;2023-04-24T02:30:10;4.22;;;1.23;;
65737;SDS011;52478;51.844;6.582;2023-04-24T02:32:38;3.75;;;1.20;;
65737;SDS011;52478;51.844;6.582;2023-04-24T02:35:05;3.00;;;1.13;;
65737;SDS011;52478;51.844;6.582;2023-04-24T02:37:32;4.55;;;1.42;;
65737;SDS011;52478;51.844;6.582;2023-04-24T02:39:58;3.42;;;1.38;;
65737;SDS011;52478;51.844;6.582;2023-04-24T02:42:25;4.05;;;1.45;;
65737;SDS011;52478;51.844;6.582;2023-04-24T02:44:51;3.95;;;1.38;;
65737;SDS011;52478;51.844;6.582;2023-04-24T02:47:18;3.85;;;1.27;;
65737;SDS011;52478;51.844;6.582;2023-04-24T02:49:46;3.75;;;1.35;;
65737;SDS011;52478;51.844;6.582;2023-04-24T02:52:12;4.15;;;1.42;;
65737;SDS011;52478;51.844;6.582;2023-04-24T03:01:59;4.40;;;1.55;;
65737;SDS011;52478;51.844;6.582;2023-04-24T03:04:25;4.15;;;1.60;;
65737;SDS011;52478;51.844;6.582;2023-04-24T03:06:53;4.68;;;1.40;;
65737;SDS011;52478;51.844;6.582;2023-04-24T03:09:21;4.43;;;1.38;;
65737;SDS011;52478;51.844;6.582;2023-04-24T03:11:48;5.85;;;1.70;;
65737;SDS011;52478;51.844;6.582;2023-04-24T03:14:15;4.40;;;1.48;;
65737;SDS011;52478;51.844;6.582;2023-04-24T03:16:42;3.95;;;1.30;;
65737;SDS011;52478;51.844;6.582;2023-04-24T03:19:08;4.30;;;1.52;;
65737;SDS011;52478;51.844;6.582;2023-04-24T03:21:34;5.05;;;1.60;;
65737;SDS011;52478;51.844;6.582;2023-04-24T03:24:06;4.22;;;1.40;;
65737;SDS011;52478;51.844;6.582;2023-04-24T03:26:33;4.35;;;1.35;;
65737;SDS011;52478;51.844;6.582;2023-04-24T03:29:00;4.75;;;1.50;;
65737;SDS011;52478;51.844;6.582;2023-04-24T03:31:26;4.90;;;1.77;;
65737;SDS011;52478;51.844;6.582;2023-04-24T03:33:53;4.50;;;1.55;;
65737;SDS011;52478;51.844;6.582;2023-04-24T03:36:19;4.22;;;1.38;;
65737;SDS011;52478;51.844;6.582;2023-04-24T03:38:46;4.10;;;1.50;;
65737;SDS011;52478;51.844;6.582;2023-04-24T03:41:13;4.95;;;1.60;;
65737;SDS011;52478;51.844;6.582;2023-04-24T03:43:40;4.10;;;1.42;;
65737;SDS011;52478;51.844;6.582;2023-04-24T03:46:06;4.40;;;1.50;;
65737;SDS011;52478;51.844;6.582;2023-04-24T03:48:34;4.82;;;1.60;;
65737;SDS011;52478;51.844;6.582;2023-04-24T03:51:00;4.60;;;1.60;;
65737;SDS011;52478;51.844;6.582;2023-04-24T03:53:27;6.43;;;1.67;;
65737;SDS011;52478;51.844;6.582;2023-04-24T03:55:54;5.50;;;1.48;;
65737;SDS011;52478;51.844;6.582;2023-04-24T03:58:21;5.07;;;1.80;;
65737;SDS011;52478;51.844;6.582;2023-04-24T04:00:48;4.35;;;1.48;;
65737;SDS011;52478;51.844;6.582;2023-04-24T04:03:15;6.38;;;1.85;;
65737;SDS011;52478;51.844;6.582;2023-04-24T04:05:41;4.68;;;1.65;;
65737;SDS011;52478;51.844;6.582;2023-04-24T04:08:08;4.55;;;1.52;;
65737;SDS011;52478;51.844;6.582;2023-04-24T04:10:34;4.20;;;1.50;;
65737;SDS011;52478;51.844;6.582;2023-04-24T04:13:01;5.63;;;1.60;;
65737;SDS011;52478;51.844;6.582;2023-04-24T04:15:28;5.65;;;1.80;;
65737;SDS011;52478;51.844;6.582;2023-04-24T04:17:55;3.95;;;1.50;;
65737;SDS011;52478;51.844;6.582;2023-04-24T04:20:21;6.00;;;1.83;;
65737;SDS011;52478;51.844;6.582;2023-04-24T04:22:48;4.60;;;1.73;;
65737;SDS011;52478;51.844;6.582;2023-04-24T04:25:14;4.57;;;1.70;;
65737;SDS011;52478;51.844;6.582;2023-04-24T04:27:44;4.55;;;1.77;;
65737;SDS011;52478;51.844;6.582;2023-04-24T04:30:10;4.70;;;1.65;;
65737;SDS011;52478;51.844;6.582;2023-04-24T04:32:38;5.18;;;1.67;;
65737;SDS011;52478;51.844;6.582;2023-04-24T04:35:05;4.70;;;1.83;;
65737;SDS011;52478;51.844;6.582;2023-04-24T04:37:32;5.22;;;2.00;;
65737;SDS011;52478;51.844;6.582;2023-04-24T04:39:59;5.03;;;1.80;;
65737;SDS011;52478;51.844;6.582;2023-04-24T04:42:26;4.82;;;1.75;;
65737;SDS011;52478;51.844;6.582;2023-04-24T04:44:53;5.78;;;1.90;;
65737;SDS011;52478;51.844;6.582;2023-04-24T04:47:21;6.05;;;2.10;;
65737;SDS011;52478;51.844;6.582;2023-04-24T04:49:49;6.03;;;2.30;;
65737;SDS011;52478;51.844;6.582;2023-04-24T04:52:16;5.43;;;1.80;;
65737;SDS011;52478;51.844;6.582;2023-04-24T04:54:43;4.65;;;1.95;;
65737;SDS011;52478;51.844;6.582;2023-04-24T04:57:11;5.10;;;2.10;;
65737;SDS011;52478;51.844;6.582;2023-04-24T05:02:06;4.75;;;2.00;;
65737;SDS011;52478;51.844;6.582;2023-04-24T05:04:32;5.35;;;2.08;;
65737;SDS011;52478;51.844;6.582;2023-04-24T05:07:00;4.55;;;1.90;;
65737;SDS011;52478;51.844;6.582;2023-04-24T05:09:27;6.38;;;2.30;;
65737;SDS011;52478;51.844;6.582;2023-04-24T05:11:54;5.43;;;2.05;;
65737;SDS011;52478;51.844;6.582;2023-04-24T05:14:21;5.40;;;2.00;;
65737;SDS011;52478;51.844;6.582;2023-04-24T05:16:47;5.32;;;2.13;;
65737;SDS011;52478;51.844;6.582;2023-04-24T05:19:14;6.93;;;2.20;;
65737;SDS011;52478;51.844;6.582;2023-04-24T05:21:41;5.07;;;2.08;;
65737;SDS011;52478;51.844;6.582;2023-04-24T05:24:08;6.70;;;2.50;;
65737;SDS011;52478;51.844;6.582;2023-04-24T05:26:35;5.22;;;2.10;;
65737;SDS011;52478;51.844;6.582;2023-04-24T05:29:01;5.30;;;2.00;;
65737;SDS011;52478;51.844;6.582;2023-04-24T05:31:28;5.47;;;2.00;;
65737;SDS011;52478;51.844;6.582;2023-04-24T05:33:55;5.28;;;2.03;;
65737;SDS011;52478;51.844;6.582;2023-04-24T05:36:21;5.60;;;2.38;;
65737;SDS011;52478;51.844;6.582;2023-04-24T05:38:47;5.65;;;2.30;;
65737;SDS011;52478;51.844;6.582;2023-04-24T05:41:15;6.93;;;2.25;;
65737;SDS011;52478;51.844;6.582;2023-04-24T05:43:42;7.00;;;2.60;;
65737;SDS011;52478;51.844;6.582;2023-04-24T05:46:08;7.95;;;2.75;;
65737;SDS011;52478;51.844;6.582;2023-04-24T05:48:35;8.73;;;2.50;;
65737;SDS011;52478;51.844;6.582;2023-04-24T05:51:02;7.80;;;2.60;;
65737;SDS011;52478;51.844;6.582;2023-04-24T05:53:28;7.70;;;2.40;;
65737;SDS011;52478;51.844;6.582;2023-04-24T05:55:55;7.13;;;2.53;;
65737;SDS011;52478;51.844;6.582;2023-04-24T05:58:23;5.80;;;2.53;;
65737;SDS011;52478;51.844;6.582;2023-04-24T06:00:49;9.55;;;2.60;;
65737;SDS011;52478;51.844;6.582;2023-04-24T06:03:16;7.10;;;2.63;;
65737;SDS011;52478;51.844;6.582;2023-04-24T06:05:42;7.22;;;3.10;;
65737;SDS011;52478;51.844;6.582;2023-04-24T06:08:09;8.50;;;2.40;;
65737;SDS011;52478;51.844;6.582;2023-04-24T06:10:36;10.05;;;2.75;;
65737;SDS011;52478;51.844;6.582;2023-04-24T06:13:02;8.18;;;2.88;;
65737;SDS011;52478;51.844;6.582;2023-04-24T06:15:30;6.43;;;2.25;;
65737;SDS011;52478;51.844;6.582;2023-04-24T06:17:57;6.82;;;2.33;;
65737;SDS011;52478;51.844;6.582;2023-04-24T06:20:23;11.57;;;2.80;;
65737;SDS011;52478;51.844;6.582;2023-04-24T06:22:50;8.57;;;2.63;;
65737;SDS011;52478;51.844;6.582;2023-04-24T06:25:17;10.88;;;2.75;;
65737;SDS011;52478;51.844;6.582;2023-04-24T06:32:38;9.07;;;3.00;;
65737;SDS011;52478;51.844;6.582;2023-04-24T06:35:06;7.60;;;2.78;;
65737;SDS011;52478;51.844;6.582;2023-04-24T06:37:34;11.55;;;2.67;;
65737;SDS011;52478;51.844;6.582;2023-04-24T06:40:01;10.55;;;3.03;;
65737;SDS011;52478;51.844;6.582;2023-04-24T06:42:27;7.07;;;3.03;;
65737;SDS011;52478;51.844;6.582;2023-04-24T06:44:54;9.30;;;3.05;;
65737;SDS011;52478;51.844;6.582;2023-04-24T06:47:21;8.63;;;3.08;;
65737;SDS011;52478;51.844;6.582;2023-04-24T06:49:49;7.07;;;2.55;;
65737;SDS011;52478;51.844;6.582;2023-04-24T06:52:17;8.13;;;2.65;;
65737;SDS011;52478;51.844;6.582;2023-04-24T06:54:44;7.70;;;2.75;;
65737;SDS011;52478;51.844;6.582;2023-04-24T06:57:10;8.95;;;2.60;;
65737;SDS011;52478;51.844;6.582;2023-04-24T06:59:37;8.15;;;2.85;;
65737;SDS011;52478;51.844;6.582;2023-04-24T07:02:04;6.97;;;2.75;;
65737;SDS011;52478;51.844;6.582;2023-04-24T07:04:31;6.10;;;2.50;;
65737;SDS011;52478;51.844;6.582;2023-04-24T07:06:59;6.80;;;2.53;;
65737;SDS011;52478;51.844;6.582;2023-04-24T07:09:26;8.35;;;2.42;;
65737;SDS011;52478;51.844;6.582;2023-04-24T07:11:52;7.32;;;2.60;;
65737;SDS011;52478;51.844;6.582;2023-04-24T07:14:19;8.23;;;2.75;;
65737;SDS011;52478;51.844;6.582;2023-04-24T07:16:46;8.52;;;2.60;;
65737;SDS011;52478;51.844;6.582;2023-04-24T07:19:13;8.05;;;2.78;;
65737;SDS011;52478;51.844;6.582;2023-04-24T07:21:39;6.03;;;2.40;;
65737;SDS011;52478;51.844;6.582;2023-04-24T07:24:07;6.38;;;2.17;;
65737;SDS011;52478;51.844;6.582;2023-04-24T07:26:35;5.82;;;2.30;;
65737;SDS011;52478;51.844;6.582;2023-04-24T07:29:03;9.25;;;2.47;;
65737;SDS011;52478;51.844;6.582;2023-04-24T07:31:29;7.43;;;2.50;;
65737;SDS011;52478;51.844;6.582;2023-04-24T07:33:56;5.57;;;2.15;;
65737;SDS011;52478;51.844;6.582;2023-04-24T07:36:23;6.65;;;2.00;;
65737;SDS011;52478;51.844;6.582;2023-04-24T07:38:51;6.20;;;2.17;;
65737;SDS011;52478;51.844;6.582;2023-04-24T07:41:18;7.32;;;2.08;;
65737;SDS011;52478;51.844;6.582;2023-04-24T07:43:45;6.45;;;2.58;;
65737;SDS011;52478;51.844;6.582;2023-04-24T07:46:12;6.80;;;2.28;;
65737;SDS011;52478;51.844;6.582;2023-04-24T07:48:38;7.57;;;2.30;;
65737;SDS011;52478;51.844;6.582;2023-04-24T07:51:05;6.97;;;2.15;;
65737;SDS011;52478;51.844;6.582;2023-04-24T07:53:32;6.93;;;2.05;;
65737;SDS011;52478;51.844;6.582;2023-04-24T07:55:58;5.03;;;1.90;;
65737;SDS011;52478;51.844;6.582;2023-04-24T07:58:26;6.65;;;2.05;;
65737;SDS011;52478;51.844;6.582;2023-04-24T08:00:53;6.97;;;2.00;;
65737;SDS011;52478;51.844;6.582;2023-04-24T08:03:19;6.35;;;2.10;;
65737;SDS011;52478;51.844;6.582;2023-04-24T08:05:46;5.22;;;1.67;;
65737;SDS011;52478;51.844;6.582;2023-04-24T08:08:13;4.90;;;1.80;;
65737;SDS011;52478;51.844;6.582;2023-04-24T08:10:39;6.47;;;1.90;;
65737;SDS011;52478;51.844;6.582;2023-04-24T08:13:06;6.20;;;2.00;;
65737;SDS011;52478;51.844;6.582;2023-04-24T08:15:35;4.97;;;1.83;;
65737;SDS011;52478;51.844;6.582;2023-04-24T08:18:01;5.47;;;1.80;;
65737;SDS011;52478;51.844;6.582;2023-04-24T08:20:27;5.28;;;1.90;;
65737;SDS011;52478;51.844;6.582;2023-04-24T08:22:54;5.10;;;1.90;;
65737;SDS011;52478;51.844;6.582;2023-04-24T08:25:21;5.28;;;1.83;;
65737;SDS011;52478;51.844;6.582;2023-04-24T08:27:49;5.07;;;1.83;;
65737;SDS011;52478;51.844;6.582;2023-04-24T08:30:16;6.03;;;2.00;;
65737;SDS011;52478;51.844;6.582;2023-04-24T08:32:44;5.50;;;1.92;;
65737;SDS011;52478;51.844;6.582;2023-04-24T08:35:11;5.47;;;1.85;;
65737;SDS011;52478;51.844;6.582;2023-04-24T08:37:37;5.18;;;1.70;;
65737;SDS011;52478;51.844;6.582;2023-04-24T08:40:06;4.55;;;1.65;;
65737;SDS011;52478;51.844;6.582;2023-04-24T08:42:37;4.78;;;1.75;;
65737;SDS011;52478;51.844;6.582;2023-04-24T08:45:05;4.72;;;1.67;;
65737;SDS011;52478;51.844;6.582;2023-04-24T08:47:33;4.78;;;1.70;;
65737;SDS011;52478;51.844;6.582;2023-04-24T08:50:03;4.75;;;1.60;;
65737;SDS011;52478;51.844;6.582;2023-04-24T08:52:30;5.35;;;1.60;;
65737;SDS011;52478;51.844;6.582;2023-04-24T08:54:59;4.85;;;1.70;;
65737;SDS011;52478;51.844;6.582;2023-04-24T08:57:26;4.40;;;1.48;;
65737;SDS011;52478;51.844;6.582;2023-04-24T08:59:53;5.95;;;1.85;;
65737;SDS011;52478;51.844;6.582;2023-04-24T09:02:20;6.15;;;1.90;;
65737;SDS011;52478;51.844;6.582;2023-04-24T09:04:47;4.05;;;1.50;;
65737;SDS011;52478;51.844;6.582;2023-04-24T09:07:17;4.20;;;1.67;;
65737;SDS011;52478;51.844;6.582;2023-04-24T09:09:45;4.75;;;1.50;;
65737;SDS011;52478;51.844;6.582;2023-04-24T09:12:12;3.97;;;1.52;;
65737;SDS011;52478;51.844;6.582;2023-04-24T09:14:38;4.75;;;1.50;;
65737;SDS011;52478;51.844;6.582;2023-04-24T09:17:09;4.53;;;1.55;;
65737;SDS011;52478;51.844;6.582;2023-04-24T09:19:36;4.50;;;1.70;;
65737;SDS011;52478;51.844;6.582;2023-04-24T09:22:04;5.03;;;1.75;;
65737;SDS011;52478;51.844;6.582;2023-04-24T09:24:33;4.53;;;1.50;;
65737;SDS011;52478;51.844;6.582;2023-04-24T09:27:00;5.95;;;1.70;;
65737;SDS011;52478;51.844;6.582;2023-04-24T09:29:27;4.85;;;1.90;;
65737;SDS011;52478;51.844;6.582;2023-04-24T09:31:54;7.35;;;1.50;;
65737;SDS011;52478;51.844;6.582;2023-04-24T09:34:21;6.88;;;1.75;;
65737;SDS011;52478;51.844;6.582;2023-04-24T09:36:48;5.15;;;1.70;;
65737;SDS011;52478;51.844;6.582;2023-04-24T09:39:16;5.10;;;1.80;;
65737;SDS011;52478;51.844;6.582;2023-04-24T09:41:46;5.65;;;1.77;;
65737;SDS011;52478;51.844;6.582;2023-04-24T09:44:15;5.80;;;1.92;;
65737;SDS011;52478;51.844;6.582;2023-04-24T09:46:42;4.78;;;1.90;;
65737;SDS011;52478;51.844;6.582;2023-04-24T09:49:10;5.25;;;1.83;;
65737;SDS011;52478;51.844;6.582;2023-04-24T09:51:38;4.93;;;1.83;;
65737;SDS011;52478;51.844;6.582;2023-04-24T09:54:10;5.47;;;1.70;;
65737;SDS011;52478;51.844;6.582;2023-04-24T09:56:41;5.60;;;1.92;;
65737;SDS011;52478;51.844;6.582;2023-04-24T09:59:10;5.22;;;1.73;;
65737;SDS011;52478;51.844;6.582;2023-04-24T10:01:37;4.90;;;1.77;;
65737;SDS011;52478;51.844;6.582;2023-04-24T10:04:08;5.65;;;1.90;;
65737;SDS011;52478;51.844;6.582;2023-04-24T10:06:42;4.53;;;1.92;;
65737;SDS011;52478;51.844;6.582;2023-04-24T10:09:08;5.18;;;1.80;;
65737;SDS011;52478;51.844;6.582;2023-04-24T10:11:36;4.85;;;1.85;;
65737;SDS011;52478;51.844;6.582;2023-04-24T10:14:03;5.68;;;1.85;;
65737;SDS011;52478;51.844;6.582;2023-04-24T10:16:31;5.72;;;2.10;;
65737;SDS011;52478;51.844;6.582;2023-04-24T10:18:58;5.47;;;1.90;;
65737;SDS011;52478;51.844;6.582;2023-04-24T10:21:25;4.78;;;1.90;;
65737;SDS011;52478;51.844;6.582;2023-04-24T10:26:20;5.93;;;2.10;;
65737;SDS011;52478;51.844;6.582;2023-04-24T10:28:47;6.97;;;2.22;;
65737;SDS011;52478;51.844;6.582;2023-04-24T10:31:14;5.15;;;1.95;;
65737;SDS011;52478;51.844;6.582;2023-04-24T10:33:43;5.15;;;1.88;;
65737;SDS011;52478;51.844;6.582;2023-04-24T10:36:11;6.55;;;1.90;;
65737;SDS011;52478;51.844;6.582;2023-04-24T10:38:40;5.47;;;1.90;;
65737;SDS011;52478;51.844;6.582;2023-04-24T10:41:09;6.75;;;2.10;;
65737;SDS011;52478;51.844;6.582;2023-04-24T10:43:41;5.75;;;1.80;;
65737;SDS011;52478;51.844;6.582;2023-04-24T10:46:08;5.60;;;2.00;;
65737;SDS011;52478;51.844;6.582;2023-04-24T10:48:36;6.20;;;2.05;;
65737;SDS011;52478;51.844;6.582;2023-04-24T10:51:11;5.30;;;1.90;;
65737;SDS011;52478;51.844;6.582;2023-04-24T10:53:39;5.45;;;1.80;;
65737;SDS011;52478;51.844;6.582;2023-04-24T10:56:06;5.78;;;1.88;;
65737;SDS011;52478;51.844;6.582;2023-04-24T10:58:38;6.53;;;2.38;;
65737;SDS011;52478;51.844;6.582;2023-04-24T11:01:11;5.20;;;2.00;;
65737;SDS011;52478;51.844;6.582;2023-04-24T11:03:54;7.85;;;2.22;;
65737;SDS011;52478;51.844;6.582;2023-04-24T11:06:28;5.20;;;1.90;;
65737;SDS011;52478;51.844;6.582;2023-04-24T11:08:58;5.38;;;1.98;;
65737;SDS011;52478;51.844;6.582;2023-04-24T11:11:29;5.85;;;2.15;;
65737;SDS011;52478;51.844;6.582;2023-04-24T11:14:05;8.23;;;2.10;;
65737;SDS011;52478;51.844;6.582;2023-04-24T11:16:34;5.32;;;1.98;;
65737;SDS011;52478;51.844;6.582;2023-04-24T11:19:05;7.65;;;2.30;;
65737;SDS011;52478;51.844;6.582;2023-04-24T11:21:42;5.43;;;1.90;;
65737;SDS011;52478;51.844;6.582;2023-04-24T11:24:26;7.43;;;2.22;;
65737;SDS011;52478;51.844;6.582;2023-04-24T11:26:54;6.22;;;1.80;;
65737;SDS011;52478;51.844;6.582;2023-04-24T11:29:23;6.97;;;2.00;;
65737;SDS011;52478;51.844;6.582;2023-04-24T11:32:13;6.25;;;2.20;;
65737;SDS011;52478;51.844;6.582;2023-04-24T11:37:13;7.25;;;2.13;;
65737;SDS011;52478;51.844;6.582;2023-04-24T11:39:40;6.78;;;1.90;;
65737;SDS011;52478;51.844;6.582;2023-04-24T11:42:06;7.82;;;2.05;;
65737;SDS011;52478;51.844;6.582;2023-04-24T11:44:34;6.72;;;1.95;;
65737;SDS011;52478;51.844;6.582;2023-04-24T11:47:02;7.50;;;2.00;;
65737;SDS011;52478;51.844;6.582;2023-04-24T11:49:28;7.05;;;2.03;;
65737;SDS011;52478;51.844;6.582;2023-04-24T11:51:56;5.55;;;1.90;;
65737;SDS011;52478;51.844;6.582;2023-04-24T11:54:22;6.50;;;1.92;;
65737;SDS011;52478;51.844;6.582;2023-04-24T11:56:49;6.07;;;2.03;;
65737;SDS011;52478;51.844;6.582;2023-04-24T11:59:15;6.10;;;2.08;;
65737;SDS011;52478;51.844;6.582;2023-04-24T12:01:42;6.63;;;2.20;;
65737;SDS011;52478;51.844;6.582;2023-04-24T12:04:10;6.97;;;1.92;;
65737;SDS011;52478;51.844;6.582;2023-04-24T12:06:37;5.93;;;2.00;;
65737;SDS011;52478;51.844;6.582;2023-04-24T12:09:05;6.70;;;1.92;;
65737;SDS011;52478;51.844;6.582;2023-04-24T12:11:32;5.50;;;2.20;;
65737;SDS011;52478;51.844;6.582;2023-04-24T12:14:08;5.57;;;1.90;;
65737;SDS011;52478;51.844;6.582;2023-04-24T12:16:36;6.65;;;2.10;;
65737;SDS011;52478;51.844;6.582;2023-04-24T12:19:02;14.30;;;3.60;;
65737;SDS011;52478;51.844;6.582;2023-04-24T12:21:30;54.67;;;11.55;;
65737;SDS011;52478;51.844;6.582;2023-04-24T12:23:57;54.90;;;12.15;;
65737;SDS011;52478;51.844;6.582;2023-04-24T12:26:27;48.25;;;11.52;;
65737;SDS011;52478;51.844;6.582;2023-04-24T12:28:54;51.28;;;11.45;;
65737;SDS011;52478;51.844;6.582;2023-04-24T12:31:20;45.10;;;11.68;;
65737;SDS011;52478;51.844;6.582;2023-04-24T12:33:47;37.65;;;10.20;;
65737;SDS011;52478;51.844;6.582;2023-04-24T12:36:13;39.70;;;9.35;;
65737;SDS011;52478;51.844;6.582;2023-04-24T12:38:42;32.85;;;9.20;;
65737;SDS011;52478;51.844;6.582;2023-04-24T12:41:11;35.72;;;8.55;;
65737;SDS011;52478;51.844;6.582;2023-04-24T12:43:50;34.95;;;8.13;;
65737;SDS011;52478;51.844;6.582;2023-04-24T12:46:17;30.33;;;7.63;;
65737;SDS011;52478;51.844;6.582;2023-04-24T12:48:43;29.60;;;7.38;;
65737;SDS011;52478;51.844;6.582;2023-04-24T12:51:10;24.60;;;6.40;;
65737;SDS011;52478;51.844;6.582;2023-04-24T12:53:36;30.35;;;6.85;;
65737;SDS011;52478;51.844;6.582;2023-04-24T12:56:03;22.88;;;6.05;;
65737;SDS011;52478;51.844;6.582;2023-04-24T12:58:30;22.20;;;6.75;;
65737;SDS011;52478;51.844;6.582;2023-04-24T13:00:58;20.42;;;5.20;;
65737;SDS011;52478;51.844;6.582;2023-04-24T13:03:25;21.92;;;6.05;;
65737;SDS011;52478;51.844;6.582;2023-04-24T13:05:52;20.45;;;4.97;;
65737;SDS011;52478;51.844;6.582;2023-04-24T13:08:19;15.93;;;4.90;;
65737;SDS011;52478;51.844;6.582;2023-04-24T13:10:45;14.52;;;4.20;;
65737;SDS011;52478;51.844;6.582;2023-04-24T13:13:12;16.02;;;4.20;;
65737;SDS011;52478;51.844;6.582;2023-04-24T13:15:38;16.65;;;3.85;;
65737;SDS011;52478;51.844;6.582;2023-04-24T13:18:06;13.38;;;4.43;;
65737;SDS011;52478;51.844;6.582;2023-04-24T13:20:32;14.13;;;3.90;;
65737;SDS011;52478;51.844;6.582;2023-04-24T13:23:00;14.27;;;3.65;;
65737;SDS011;52478;51.844;6.582;2023-04-24T13:25:26;13.93;;;3.17;;
65737;SDS011;52478;51.844;6.582;2023-04-24T13:27:53;13.00;;;3.50;;
65737;SDS011;52478;51.844;6.582;2023-04-24T13:30:20;15.90;;;3.70;;
65737;SDS011;52478;51.844;6.582;2023-04-24T13:32:46;12.95;;;3.33;;
65737;SDS011;52478;51.844;6.582;2023-04-24T13:35:14;11.93;;;3.38;;
65737;SDS011;52478;51.844;6.582;2023-04-24T13:37:40;13.75;;;3.42;;
65737;SDS011;52478;51.844;6.582;2023-04-24T13:40:07;12.98;;;3.33;;
65737;SDS011;52478;51.844;6.582;2023-04-24T13:42:34;11.00;;;3.25;;
65737;SDS011;52478;51.844;6.582;2023-04-24T13:45:01;11.10;;;2.95;;
65737;SDS011;52478;51.844;6.582;2023-04-24T13:54:48;8.65;;;2.83;;
65737;SDS011;52478;51.844;6.582;2023-04-24T13:57:15;9.40;;;2.63;;
65737;SDS011;52478;51.844;6.582;2023-04-24T14:04:34;8.82;;;2.60;;
65737;SDS011;52478;51.844;6.582;2023-04-24T14:07:01;11.50;;;2.40;;
65737;SDS011;52478;51.844;6.582;2023-04-24T14:09:29;9.98;;;2.83;;
65737;SDS011;52478;51.844;6.582;2023-04-24T14:11:55;9.48;;;2.17;;
65737;SDS011;52478;51.844;6.582;2023-04-24T14:14:21;8.80;;;2.05;;
65737;SDS011;52478;51.844;6.582;2023-04-24T14:16:48;7.43;;;2.03;;
65737;SDS011;52478;51.844;6.582;2023-04-24T14:19:15;9.20;;;2.40;;
65737;SDS011;52478;51.844;6.582;2023-04-24T14:21:41;9.18;;;2.40;;
65737;SDS011;52478;51.844;6.582;2023-04-24T14:24:08;8.57;;;2.53;;
65737;SDS011;52478;51.844;6.582;2023-04-24T14:26:36;9.07;;;1.98;;
65737;SDS011;52478;51.844;6.582;2023-04-24T14:29:02;8.23;;;2.28;;
65737;SDS011;52478;51.844;6.582;2023-04-24T14:31:29;7.93;;;2.17;;
65737;SDS011;52478;51.844;6.582;2023-04-24T14:33:55;7.18;;;1.75;;
65737;SDS011;52478;51.844;6.582;2023-04-24T14:36:22;7.80;;;1.95;;
65737;SDS011;52478;51.844;6.582;2023-04-24T14:38:49;6.05;;;1.73;;
65737;SDS011;52478;51.844;6.582;2023-04-24T14:41:15;8.40;;;2.22;;
65737;SDS011;52478;51.844;6.582;2023-04-24T14:43:43;7.95;;;2.05;;
65737;SDS011;52478;51.844;6.582;2023-04-24T14:46:09;4.68;;;1.58;;
65737;SDS011;52478;51.844;6.582;2023-04-24T14:48:36;8.75;;;2.20;;
65737;SDS011;52478;51.844;6.582;2023-04-24T14:51:02;8.40;;;1.80;;
65737;SDS011;52478;51.844;6.582;2023-04-24T14:53:29;7.15;;;1.50;;
65737;SDS011;52478;51.844;6.582;2023-04-24T14:55:56;7.32;;;1.83;;
65737;SDS011;52478;51.844;6.582;2023-04-24T14:58:22;7.43;;;1.60;;
65737;SDS011;52478;51.844;6.582;2023-04-24T15:00:50;7.50;;;1.67;;
65737;SDS011;52478;51.844;6.582;2023-04-24T15:03:19;5.85;;;1.80;;
65737;SDS011;52478;51.844;6.582;2023-04-24T15:05:46;5.40;;;1.70;;
65737;SDS011;52478;51.844;6.582;2023-04-24T15:08:13;6.90;;;1.92;;
65737;SDS011;52478;51.844;6.582;2023-04-24T15:10:39;6.65;;;1.80;;
65737;SDS011;52478;51.844;6.582;2023-04-24T15:13:06;6.70;;;1.73;;
65737;SDS011;52478;51.844;6.582;2023-04-24T15:15:32;7.45;;;1.60;;
65737;SDS011;52478;51.844;6.582;2023-04-24T15:18:00;7.68;;;1.80;;
65737;SDS011;52478;51.844;6.582;2023-04-24T15:20:26;4.97;;;1.40;;
65737;SDS011;52478;51.844;6.582;2023-04-24T15:22:53;6.07;;;1.60;;
65737;SDS011;52478;51.844;6.582;2023-04-24T15:25:19;6.97;;;1.92;;